createdAt,value
2022-08-30T00:01:35.761Z,99.90
2022-08-30T00:04:08.285Z,99.90
2022-08-30T00:06:36.677Z,99.90
2022-08-30T00:09:05.019Z,99.90
2022-08-30T00:11:33.348Z,99.90
2022-08-30T00:14:01.599Z,99.90
2022-08-30T00:16:30.207Z,99.90
2022-08-30T00:19:00.561Z,99.90
2022-08-30T00:21:29.049Z,99.90
2022-08-30T00:23:57.350Z,99.90
2022-08-30T00:26:25.711Z,1.00
2022-08-30T00:28:54.052Z,1.00
2022-08-30T00:31:23.441Z,1.00
2022-08-30T00:33:51.855Z,1.00
2022-08-30T00:36:21.469Z,1.00
2022-08-30T00:38:49.799Z,1.00
2022-08-30T00:41:18.290Z,1.00
2022-08-30T00:43:46.617Z,1.00
2022-08-30T00:46:15.024Z,1.00
2022-08-30T00:48:46.324Z,1.00
2022-08-30T00:51:16.501Z,1.00
2022-08-30T00:53:49.747Z,1.00
2022-08-30T00:56:19.561Z,1.00
2022-08-30T00:58:51.553Z,1.00
2022-08-30T01:01:20.900Z,1.00
2022-08-30T01:03:50.015Z,1.00
2022-08-30T01:06:18.953Z,1.00
2022-08-30T01:08:49.360Z,1.00
2022-08-30T01:11:21.533Z,1.00
2022-08-30T01:13:51.440Z,1.00
2022-08-30T01:16:20.298Z,1.00
2022-08-30T01:18:50.725Z,1.00
2022-08-30T01:21:27.045Z,1.00
2022-08-30T01:24:00.001Z,1.00
2022-08-30T01:26:30.593Z,1.00
2022-08-30T01:29:03.323Z,1.00
2022-08-30T01:31:32.739Z,1.00
2022-08-30T01:34:02.701Z,1.00
2022-08-30T01:36:31.085Z,1.00
2022-08-30T01:39:01.629Z,1.00
2022-08-30T01:41:33.541Z,1.00
2022-08-30T01:44:03.888Z,1.00
2022-08-30T01:46:35.999Z,1.00
2022-08-30T01:49:07.813Z,1.00
2022-08-30T01:51:36.353Z,1.00
2022-08-30T01:54:06.084Z,1.00
2022-08-30T01:56:34.799Z,1.00
2022-08-30T01:59:03.382Z,1.00
2022-08-30T02:01:35.959Z,1.00
2022-08-30T02:04:06.798Z,1.00
2022-08-30T02:06:35.113Z,1.00
2022-08-30T02:09:07.895Z,1.00
2022-08-30T02:11:36.075Z,1.00
2022-08-30T02:14:04.518Z,1.00
2022-08-30T02:16:33.540Z,1.00
2022-08-30T02:19:01.778Z,1.00
2022-08-30T02:21:30.108Z,1.00
2022-08-30T02:23:59.442Z,1.00
2022-08-30T02:26:29.220Z,1.00
2022-08-30T02:28:59.060Z,1.00
2022-08-30T02:31:27.462Z,1.00
2022-08-30T02:33:55.739Z,1.00
2022-08-30T02:36:24.395Z,1.00
2022-08-30T02:38:53.711Z,1.00
2022-08-30T02:41:23.557Z,1.00
2022-08-30T02:43:58.290Z,1.00
2022-08-30T02:46:26.613Z,1.00
2022-08-30T02:48:58.673Z,1.00
2022-08-30T02:51:28.993Z,1.00
2022-08-30T02:53:57.171Z,1.00
2022-08-30T02:56:25.420Z,1.00
2022-08-30T02:58:55.282Z,1.00
2022-08-30T03:01:27.491Z,1.00
2022-08-30T03:03:57.558Z,1.00
2022-08-30T03:06:25.877Z,1.00
2022-08-30T03:08:54.213Z,1.00
2022-08-30T03:11:22.474Z,1.00
2022-08-30T03:13:52.103Z,1.00
2022-08-30T03:16:22.693Z,1.00
2022-08-30T03:18:51.025Z,1.00
2022-08-30T03:21:19.459Z,1.00
2022-08-30T03:23:47.774Z,1.00
2022-08-30T03:26:18.131Z,1.00
2022-08-30T03:28:46.354Z,1.00
2022-08-30T03:31:14.687Z,1.00
2022-08-30T03:33:44.296Z,1.00
2022-08-30T03:36:13.014Z,1.00
2022-08-30T03:38:41.648Z,1.00
2022-08-30T03:41:09.882Z,1.00
2022-08-30T03:43:38.458Z,1.00
2022-08-30T03:46:07.768Z,1.00
2022-08-30T03:48:36.153Z,1.00
2022-08-30T03:51:06.256Z,1.00
2022-08-30T03:53:34.570Z,1.00
2022-08-30T03:56:03.350Z,1.00
2022-08-30T03:58:31.805Z,1.00
2022-08-30T04:01:00.150Z,1.00
2022-08-30T04:03:28.569Z,1.00
2022-08-30T04:05:57.381Z,1.00
2022-08-30T04:08:27.108Z,1.00
2022-08-30T04:10:56.192Z,1.00
2022-08-30T04:13:25.433Z,1.00
2022-08-30T04:15:53.640Z,1.00
2022-08-30T04:18:22.059Z,1.00
2022-08-30T04:20:51.687Z,1.00
2022-08-30T04:23:20.170Z,1.00
2022-08-30T04:25:49.821Z,1.00
2022-08-30T04:28:18.023Z,1.00
2022-08-30T04:30:46.367Z,1.00
2022-08-30T04:33:16.209Z,1.00
2022-08-30T04:35:46.218Z,1.00
2022-08-30T04:38:15.830Z,1.00
2022-08-30T04:40:45.583Z,1.00
2022-08-30T04:43:16.264Z,1.00
2022-08-30T04:45:44.586Z,1.00
2022-08-30T04:48:12.874Z,1.00
2022-08-30T04:50:41.085Z,1.00
2022-08-30T04:53:13.358Z,1.00
2022-08-30T04:55:43.309Z,1.00
2022-08-30T04:58:12.072Z,1.00
2022-08-30T05:00:44.010Z,1.00
2022-08-30T05:03:12.740Z,1.00
2022-08-30T05:05:40.071Z,1.00
2022-08-30T05:08:09.101Z,1.00
2022-08-30T05:10:40.248Z,1.00
2022-08-30T05:13:09.009Z,1.00
2022-08-30T05:15:37.710Z,1.00
2022-08-30T05:18:08.717Z,1.00
2022-08-30T05:20:44.657Z,1.00
2022-08-30T05:23:13.420Z,1.00
2022-08-30T05:25:43.382Z,1.00
2022-08-30T05:28:11.737Z,1.00
2022-08-30T05:30:39.907Z,1.00
2022-08-30T05:33:09.470Z,1.00
2022-08-30T05:35:37.793Z,1.00
2022-08-30T05:38:06.218Z,1.00
2022-08-30T05:40:35.544Z,1.00
2022-08-30T05:43:04.817Z,1.00
2022-08-30T05:45:33.107Z,1.00
2022-08-30T05:48:01.795Z,1.00
2022-08-30T05:50:31.947Z,1.00
2022-08-30T05:53:00.186Z,1.00
2022-08-30T05:55:28.548Z,1.00
2022-08-30T05:57:56.927Z,1.00
2022-08-30T06:00:26.563Z,1.00
2022-08-30T06:02:55.998Z,1.00
2022-08-30T06:05:24.422Z,1.00
2022-08-30T06:07:54.300Z,1.00
2022-08-30T06:10:22.604Z,1.00
2022-08-30T06:12:50.815Z,1.00
2022-08-30T06:15:19.305Z,1.00
2022-08-30T06:17:48.624Z,1.00
2022-08-30T06:20:18.801Z,1.00
2022-08-30T06:22:47.162Z,1.00
2022-08-30T06:25:17.152Z,1.00
2022-08-30T06:27:45.464Z,1.00
2022-08-30T06:30:14.319Z,1.00
2022-08-30T06:32:42.697Z,1.00
2022-08-30T06:35:11.689Z,1.00
2022-08-30T06:37:40.295Z,1.00
2022-08-30T06:40:10.256Z,1.00
2022-08-30T06:42:39.955Z,1.00
2022-08-30T06:45:10.844Z,1.00
2022-08-30T06:47:40.803Z,1.00
2022-08-30T06:50:11.129Z,1.00
2022-08-30T06:52:40.845Z,1.00
2022-08-30T06:55:10.506Z,1.00
2022-08-30T06:57:40.356Z,1.00
2022-08-30T07:00:11.021Z,1.00
2022-08-30T07:02:40.282Z,1.00
2022-08-30T07:05:13.251Z,1.00
2022-08-30T07:07:45.144Z,1.00
2022-08-30T07:10:14.714Z,1.00
2022-08-30T07:12:44.338Z,1.00
2022-08-30T07:15:13.279Z,1.00
2022-08-30T07:17:58.941Z,1.00
2022-08-30T07:20:27.499Z,1.00
2022-08-30T07:22:56.322Z,1.00
2022-08-30T07:25:24.528Z,1.00
2022-08-30T07:27:54.558Z,1.00
2022-08-30T07:30:22.888Z,1.00
2022-08-30T07:32:51.255Z,1.00
2022-08-30T07:35:19.770Z,1.00
2022-08-30T07:37:48.199Z,1.00
2022-08-30T07:40:16.930Z,1.00
2022-08-30T07:42:45.534Z,1.00
2022-08-30T07:45:15.946Z,1.00
2022-08-30T07:47:44.138Z,1.00
2022-08-30T07:50:13.125Z,1.00
2022-08-30T07:52:41.555Z,1.00
2022-08-30T07:55:11.180Z,1.00
2022-08-30T07:57:39.709Z,1.00
2022-08-30T08:00:09.259Z,1.00
2022-08-30T08:02:42.493Z,1.00
2022-08-30T08:05:15.230Z,1.00
2022-08-30T08:07:45.412Z,1.00
2022-08-30T08:10:13.995Z,1.00
2022-08-30T08:12:42.616Z,1.00
2022-08-30T08:15:13.695Z,1.00
2022-08-30T08:17:43.308Z,1.00
2022-08-30T08:20:12.179Z,1.00
2022-08-30T08:22:40.611Z,1.00
2022-08-30T08:25:09.673Z,1.00
2022-08-30T08:27:38.264Z,1.00
2022-08-30T08:30:07.872Z,1.00
2022-08-30T08:32:36.220Z,99.90
2022-08-30T08:35:06.411Z,99.90
2022-08-30T08:37:34.742Z,99.90
2022-08-30T08:40:03.592Z,99.90
2022-08-30T08:42:42.704Z,99.90
2022-08-30T08:45:14.730Z,99.90
2022-08-30T08:47:53.317Z,99.90
2022-08-30T08:50:25.564Z,99.90
2022-08-30T08:53:45.215Z,99.90
2022-08-30T08:56:15.094Z,99.90
2022-08-30T08:58:46.284Z,99.90
2022-08-30T09:01:17.909Z,99.90
2022-08-30T09:03:47.826Z,99.90
2022-08-30T09:06:45.142Z,99.90
2022-08-30T09:09:14.760Z,99.90
2022-08-30T09:11:44.544Z,99.90
2022-08-30T09:14:17.307Z,99.90
2022-08-30T09:16:49.139Z,99.90
2022-08-30T09:19:43.109Z,99.90
2022-08-30T09:22:34.844Z,99.90
2022-08-30T09:25:08.245Z,99.90
2022-08-30T09:27:38.680Z,99.90
2022-08-30T09:30:14.303Z,99.90
2022-08-30T09:32:45.229Z,99.90
2022-08-30T09:35:20.606Z,99.90
2022-08-30T09:37:56.322Z,99.90
2022-08-30T09:40:38.209Z,99.90
2022-08-30T09:43:10.509Z,99.90
2022-08-30T09:45:43.381Z,99.90
2022-08-30T09:48:33.900Z,99.90
2022-08-30T09:51:40.304Z,99.90
2022-08-30T09:54:19.189Z,99.90
2022-08-30T09:57:01.062Z,99.90
2022-08-30T09:59:41.143Z,99.90
2022-08-30T10:02:40.516Z,99.90
2022-08-30T10:05:16.208Z,99.90
2022-08-30T10:07:53.903Z,99.90
2022-08-30T10:10:35.908Z,99.90
2022-08-30T10:13:28.685Z,95.40
2022-08-30T10:16:02.215Z,38.90
2022-08-30T10:18:37.577Z,1.00
2022-08-30T10:21:15.648Z,1.00
2022-08-30T10:23:51.655Z,1.00
2022-08-30T10:26:32.538Z,1.00
2022-08-30T10:29:05.517Z,1.00
2022-08-30T10:31:41.470Z,1.00
2022-08-30T10:34:15.850Z,1.00
2022-08-30T10:36:48.247Z,1.00
2022-08-30T10:39:23.916Z,99.90
2022-08-30T10:42:01.016Z,99.90
2022-08-30T10:44:33.023Z,99.90
2022-08-30T10:47:11.706Z,99.90
2022-08-30T10:49:47.296Z,99.90
2022-08-30T10:52:31.411Z,99.90
2022-08-30T10:55:06.527Z,99.90
2022-08-30T10:57:36.894Z,99.90
2022-08-30T11:00:10.337Z,99.90
2022-08-30T11:03:15.595Z,99.90
2022-08-30T11:06:12.950Z,99.90
2022-08-30T11:09:18.507Z,99.90
2022-08-30T11:12:02.112Z,99.90
2022-08-30T11:14:33.377Z,99.90
2022-08-30T11:17:02.926Z,74.90
2022-08-30T11:19:42.950Z,1.00
2022-08-30T11:22:14.862Z,1.00
2022-08-30T11:25:10.027Z,1.00
2022-08-30T11:27:46.155Z,99.90
2022-08-30T11:30:53.642Z,99.90
2022-08-30T11:33:46.474Z,99.90
2022-08-30T11:37:09.994Z,99.90
2022-08-30T11:39:56.287Z,99.90
2022-08-30T11:42:33.216Z,99.90
2022-08-30T11:45:39.337Z,99.90
2022-08-30T11:48:30.042Z,99.90
2022-08-30T11:51:04.587Z,99.90
2022-08-30T11:53:43.437Z,99.90
2022-08-30T11:56:24.070Z,99.90
2022-08-30T11:58:59.003Z,99.90
2022-08-30T12:01:50.862Z,99.90
2022-08-30T12:04:37.474Z,99.90
2022-08-30T12:07:08.423Z,99.90
2022-08-30T12:10:05.918Z,99.90
2022-08-30T12:12:52.226Z,99.90
2022-08-30T12:15:49.278Z,99.90
2022-08-30T12:18:44.525Z,99.90
2022-08-30T12:21:31.226Z,99.90
2022-08-30T12:24:19.755Z,99.90
2022-08-30T12:26:51.382Z,99.90
2022-08-30T12:29:30.999Z,99.90
2022-08-30T12:32:03.376Z,99.90
2022-08-30T12:34:38.321Z,99.90
2022-08-30T12:37:11.992Z,99.90
2022-08-30T12:39:43.439Z,99.90
2022-08-30T12:42:17.972Z,99.90
2022-08-30T12:44:47.827Z,99.90
2022-08-30T12:47:21.039Z,99.90
2022-08-30T12:49:51.476Z,99.90
2022-08-30T12:52:24.283Z,99.90
2022-08-30T12:54:54.178Z,99.90
2022-08-30T12:57:41.585Z,99.90
2022-08-30T13:00:12.322Z,99.90
2022-08-30T13:02:48.065Z,99.90
2022-08-30T13:05:39.236Z,99.90
2022-08-30T13:08:22.352Z,99.90
2022-08-30T13:11:08.059Z,99.90
2022-08-30T13:13:40.599Z,99.90
2022-08-30T13:16:22.702Z,99.90
2022-08-30T13:18:53.850Z,99.90
2022-08-30T13:21:28.567Z,99.90
2022-08-30T13:24:01.014Z,99.90
2022-08-30T13:26:34.849Z,99.90
2022-08-30T13:29:10.317Z,99.90
2022-08-30T13:31:39.790Z,99.90
2022-08-30T13:34:12.542Z,99.90
2022-08-30T13:36:44.950Z,99.90
2022-08-30T13:39:14.884Z,99.90
2022-08-30T13:41:44.420Z,99.90
2022-08-30T13:44:14.123Z,99.90
2022-08-30T13:46:53.981Z,99.90
2022-08-30T13:52:21.837Z,99.90
2022-08-30T13:54:53.401Z,99.90
2022-08-30T14:00:17.693Z,99.90
2022-08-30T14:02:51.512Z,99.90
2022-08-30T14:05:48.400Z,99.90
2022-08-30T14:11:08.006Z,99.90
2022-08-30T14:13:37.355Z,99.90
2022-08-30T14:18:59.943Z,99.90
2022-08-30T14:21:28.920Z,99.90
2022-08-30T14:23:59.748Z,99.90
2022-08-30T14:26:32.567Z,99.90
2022-08-30T14:29:03.052Z,99.90
2022-08-30T14:31:32.801Z,99.90
2022-08-30T14:34:03.284Z,99.90
2022-08-30T14:36:32.915Z,99.90
2022-08-30T14:39:08.556Z,99.90
2022-08-30T14:41:44.092Z,99.90
2022-08-30T14:44:13.767Z,99.90
2022-08-30T14:46:42.731Z,99.90
2022-08-30T14:49:12.122Z,99.90
2022-08-30T14:51:41.392Z,99.90
2022-08-30T14:54:11.050Z,99.90
2022-08-30T14:56:41.957Z,99.90
2022-08-30T14:59:26.065Z,99.90
2022-08-30T15:03:09.408Z,99.90
2022-08-30T15:09:43.414Z,99.90
2022-08-30T15:12:17.199Z,99.90
2022-08-30T15:14:45.872Z,99.90
2022-08-30T15:17:14.279Z,99.90
2022-08-30T15:19:43.468Z,99.90
2022-08-30T15:22:12.452Z,99.90
2022-08-30T15:24:41.448Z,99.90
2022-08-30T15:27:10.478Z,99.90
2022-08-30T15:29:40.562Z,99.90
2022-08-30T15:32:09.321Z,99.90
2022-08-30T15:34:37.766Z,99.90
2022-08-30T15:37:07.711Z,99.90
2022-08-30T15:39:36.888Z,99.90
2022-08-30T15:42:05.889Z,99.90
2022-08-30T15:44:35.237Z,99.90
2022-08-30T15:47:05.347Z,99.90
2022-08-30T15:49:34.297Z,99.90
2022-08-30T15:52:07.960Z,99.90
2022-08-30T15:54:37.120Z,99.90
2022-08-30T15:57:06.004Z,99.90
2022-08-30T15:59:34.913Z,99.90
2022-08-30T16:02:04.942Z,99.90
2022-08-30T16:04:58.674Z,99.90
2022-08-30T16:07:27.210Z,99.90
2022-08-30T16:09:56.006Z,99.90
2022-08-30T16:12:24.734Z,99.90
2022-08-30T16:14:53.788Z,99.90
2022-08-30T16:17:24.082Z,99.90
2022-08-30T16:19:55.713Z,99.90
2022-08-30T16:22:26.629Z,99.90
2022-08-30T16:24:54.996Z,99.90
2022-08-30T16:27:24.969Z,99.90
2022-08-30T16:29:53.862Z,99.90
2022-08-30T16:32:23.692Z,99.90
2022-08-30T16:34:52.034Z,99.90
2022-08-30T16:37:20.429Z,99.90
2022-08-30T16:39:49.065Z,99.90
2022-08-30T16:42:19.038Z,99.90
2022-08-30T16:44:51.981Z,99.90
2022-08-30T16:47:21.318Z,99.90
2022-08-30T16:49:52.805Z,99.90
2022-08-30T16:52:21.257Z,99.90
2022-08-30T16:54:52.273Z,99.90
2022-08-30T16:57:21.202Z,99.90
2022-08-30T16:59:50.950Z,99.90
2022-08-30T17:02:21.280Z,99.90
2022-08-30T17:04:52.940Z,99.90
2022-08-30T17:07:23.046Z,99.90
2022-08-30T17:09:52.012Z,99.90
2022-08-30T17:12:21.329Z,99.90
2022-08-30T17:14:49.710Z,99.90
2022-08-30T17:17:22.008Z,99.90
2022-08-30T17:19:50.806Z,99.90
2022-08-30T17:22:19.671Z,99.90
2022-08-30T17:24:56.313Z,99.90
2022-08-30T17:27:25.548Z,99.90
2022-08-30T17:29:53.990Z,99.90
2022-08-30T17:32:22.640Z,99.90
2022-08-30T17:34:53.248Z,99.90
2022-08-30T17:37:21.840Z,99.90
2022-08-30T17:39:51.816Z,99.90
2022-08-30T17:42:20.290Z,99.90
2022-08-30T17:44:51.965Z,99.90
2022-08-30T17:47:20.999Z,99.90
2022-08-30T17:49:49.557Z,99.90
2022-08-30T17:52:21.249Z,99.90
2022-08-30T17:54:51.603Z,99.90
2022-08-30T17:57:21.824Z,99.90
2022-08-30T17:59:51.276Z,99.90
2022-08-30T18:02:22.718Z,99.90
2022-08-30T18:05:10.416Z,99.90
2022-08-30T18:07:39.944Z,99.90
2022-08-30T18:10:10.544Z,99.90
2022-08-30T18:12:39.128Z,99.90
2022-08-30T18:15:15.523Z,99.90
2022-08-30T18:17:44.912Z,99.90
2022-08-30T18:20:16.672Z,99.90
2022-08-30T18:22:45.339Z,99.90
2022-08-30T18:25:15.330Z,99.90
2022-08-30T18:27:58.381Z,99.90
2022-08-30T18:30:34.642Z,99.90
2022-08-30T18:33:08.808Z,99.90
2022-08-30T18:35:42.896Z,99.90
2022-08-30T18:38:13.908Z,99.90
2022-08-30T18:40:44.789Z,99.90
2022-08-30T18:43:13.928Z,99.90
2022-08-30T18:45:48.816Z,99.90
2022-08-30T18:48:19.724Z,99.90
2022-08-30T18:50:49.393Z,99.90
2022-08-30T18:53:29.059Z,99.90
2022-08-30T18:55:59.343Z,99.90
2022-08-30T18:58:28.069Z,99.90
2022-08-30T19:01:03.419Z,99.90
2022-08-30T19:03:33.539Z,99.90
2022-08-30T19:06:04.326Z,99.90
2022-08-30T19:08:37.127Z,1.00
2022-08-30T19:11:08.204Z,1.00
2022-08-30T19:13:37.605Z,1.00
2022-08-30T19:16:07.434Z,1.00
2022-08-30T19:18:41.228Z,1.00
2022-08-30T19:21:13.696Z,1.00
2022-08-30T19:24:01.071Z,1.00
2022-08-30T19:26:31.767Z,1.00
2022-08-30T19:29:00.538Z,1.00
2022-08-30T19:31:30.796Z,1.00
2022-08-30T19:34:03.002Z,1.00
2022-08-30T19:36:31.748Z,1.00
2022-08-30T19:39:02.119Z,16.90
2022-08-30T19:41:49.176Z,22.70
2022-08-30T19:44:31.984Z,33.80
2022-08-30T19:47:01.901Z,52.70
2022-08-30T19:49:30.246Z,68.20
2022-08-30T19:52:00.075Z,90.90
2022-08-30T19:54:31.156Z,99.90
2022-08-30T19:57:01.379Z,99.90
2022-08-30T19:59:32.518Z,99.90
2022-08-30T20:02:02.521Z,99.90
2022-08-30T20:04:31.710Z,99.90
2022-08-30T20:07:00.513Z,99.90
2022-08-30T20:09:32.505Z,99.90
2022-08-30T20:12:02.453Z,99.90
2022-08-30T20:14:31.058Z,99.90
2022-08-30T20:17:02.523Z,99.90
2022-08-30T20:19:31.719Z,99.90
2022-08-30T20:22:07.090Z,99.90
2022-08-30T20:24:43.430Z,99.90
2022-08-30T20:27:13.821Z,99.90
2022-08-30T20:29:42.531Z,99.90
2022-08-30T20:32:13.781Z,99.90
2022-08-30T20:34:43.442Z,99.90
2022-08-30T20:37:14.970Z,99.90
2022-08-30T20:39:51.339Z,99.90
2022-08-30T20:42:21.206Z,99.90
2022-08-30T20:44:49.647Z,99.90
2022-08-30T20:47:18.313Z,99.90
2022-08-30T20:49:46.944Z,99.90
2022-08-30T20:52:17.867Z,99.90
2022-08-30T20:54:47.145Z,99.90
2022-08-30T20:57:15.566Z,99.90
2022-08-30T20:59:45.768Z,99.90
2022-08-30T21:02:14.268Z,99.90
2022-08-30T21:04:43.219Z,1.00
2022-08-30T21:07:11.781Z,1.00
2022-08-30T21:09:40.186Z,1.00
2022-08-30T21:12:09.026Z,1.00
2022-08-30T21:14:37.707Z,1.00
2022-08-30T21:17:07.652Z,1.00
2022-08-30T21:19:44.156Z,1.00
2022-08-30T21:22:13.142Z,1.00
2022-08-30T21:24:41.708Z,1.00
2022-08-30T21:27:12.256Z,1.00
2022-08-30T21:29:40.753Z,1.00
2022-08-30T21:32:10.699Z,1.00
2022-08-30T21:34:59.174Z,1.00
2022-08-30T21:37:27.198Z,1.00
2022-08-30T21:39:55.966Z,1.00
2022-08-30T21:42:25.025Z,1.00
2022-08-30T21:44:53.823Z,1.00
2022-08-30T21:47:24.133Z,1.00
2022-08-30T21:49:52.519Z,1.00
2022-08-30T21:52:20.765Z,1.00
2022-08-30T21:54:49.673Z,1.00
2022-08-30T21:57:18.818Z,1.00
2022-08-30T21:59:49.917Z,1.00
2022-08-30T22:02:18.326Z,11.80
2022-08-30T22:04:49.594Z,29.90
2022-08-30T22:07:18.057Z,53.30
2022-08-30T22:09:46.562Z,87.90
2022-08-30T22:12:15.732Z,99.90
2022-08-30T22:14:44.201Z,99.90
2022-08-30T22:17:12.996Z,99.90
2022-08-30T22:19:41.415Z,99.90
2022-08-30T22:22:11.158Z,99.90
2022-08-30T22:24:40.152Z,99.90
2022-08-30T22:27:08.687Z,99.90
2022-08-30T22:29:37.399Z,99.90
2022-08-30T22:32:06.773Z,99.90
2022-08-30T22:34:40.178Z,99.90
2022-08-30T22:37:10.085Z,99.90
2022-08-30T22:39:38.677Z,99.90
2022-08-30T22:42:09.826Z,99.90
2022-08-30T22:44:38.328Z,99.90
2022-08-30T22:47:08.140Z,99.90
2022-08-30T22:49:36.906Z,99.90
2022-08-30T22:52:05.703Z,99.90
2022-08-30T22:54:36.855Z,99.90
2022-08-30T22:57:05.883Z,99.90
2022-08-30T22:59:34.797Z,99.90
2022-08-30T23:02:03.804Z,99.90
2022-08-30T23:04:32.862Z,99.90
2022-08-30T23:07:01.446Z,99.90
2022-08-30T23:09:30.053Z,99.90
2022-08-30T23:11:59.809Z,99.90
2022-08-30T23:14:29.001Z,99.90
2022-08-30T23:16:57.548Z,99.90
2022-08-30T23:19:26.787Z,99.90
2022-08-30T23:21:55.365Z,99.90
2022-08-30T23:24:41.225Z,99.90
2022-08-30T23:27:33.395Z,99.90
2022-08-30T23:30:19.565Z,99.90
2022-08-30T23:33:08.986Z,99.90
2022-08-30T23:35:54.730Z,99.90
2022-08-30T23:38:41.285Z,99.90
2022-08-30T23:41:33.877Z,99.90
2022-08-30T23:44:21.946Z,99.90
2022-08-30T23:47:07.964Z,99.90
2022-08-30T23:49:54.242Z,99.90
2022-08-30T23:52:40.396Z,99.90
2022-08-30T23:55:27.408Z,99.90
2022-08-30T23:58:13.268Z,99.90
